Time;durP1;ratioP1;P1;durP2;ratioP2;P2;SDS_P1;SDS_P2;PMS_P1;PMS_P2;Temp;Humidity;BMP_temperature;BMP_pressure;BME280_temperature;BME280_humidity;BME280_pressure;Samples;Min_cycle;Max_cycle;Signal;HPM_P1;HPM_P2
2022/10/31 00:01:15;;;;;;;11.45;5.75;;;18.30;96.00;;;;;;5113471;28;20104;-74
2022/10/31 00:03:40;;;;;;;8.95;5.35;;;18.30;96.10;;;;;;5113557;28;20023;-74
2022/10/31 00:06:06;;;;;;;10.77;5.63;;;18.30;96.10;;;;;;5113517;28;20030;-74
2022/10/31 00:08:32;;;;;;;11.20;6.68;;;18.20;96.00;;;;;;5113713;28;20074;-74
2022/10/31 00:10:57;;;;;;;9.35;6.35;;;18.30;96.10;;;;;;5113461;28;20055;-75
2022/10/31 00:13:23;;;;;;;8.40;5.88;;;18.20;96.00;;;;;;5113766;28;20460;-74
2022/10/31 00:15:48;;;;;;;10.90;4.82;;;18.20;96.10;;;;;;5113490;28;20027;-74
2022/10/31 00:18:14;;;;;;;9.88;5.07;;;18.20;96.00;;;;;;5113704;28;20027;-75
2022/10/31 00:20:40;;;;;;;12.38;5.93;;;18.20;96.10;;;;;;5113616;28;20019;-74
2022/10/31 00:23:06;;;;;;;12.43;6.15;;;18.20;96.10;;;;;;5113563;28;20027;-75
2022/10/31 00:25:37;;;;;;;11.60;6.72;;;18.20;96.00;;;;;;5113723;28;20016;-75
2022/10/31 00:28:04;;;;;;;9.70;6.25;;;18.20;95.90;;;;;;5113618;28;20028;-75
2022/10/31 00:30:30;;;;;;;10.63;6.05;;;18.20;96.00;;;;;;5113597;28;20024;-75
2022/10/31 00:32:55;;;;;;;9.18;6.00;;;18.20;96.00;;;;;;5113576;28;20028;-75
2022/10/31 00:35:21;;;;;;;12.15;6.65;;;18.20;96.00;;;;;;5113139;28;20475;-73
2022/10/31 00:37:47;;;;;;;11.88;6.30;;;18.10;96.00;;;;;;5113993;28;20080;-74
2022/10/31 00:40:12;;;;;;;9.68;6.10;;;18.10;96.00;;;;;;5113515;28;20024;-74
2022/10/31 00:42:41;;;;;;;9.95;6.57;;;18.10;96.00;;;;;;5113509;28;20539;-74
2022/10/31 00:45:10;;;;;;;12.35;5.45;;;18.10;96.00;;;;;;5117173;28;20016;-74
2022/10/31 00:47:36;;;;;;;10.90;5.38;;;18.10;96.00;;;;;;5117110;28;20020;-75
2022/10/31 00:50:03;;;;;;;7.95;5.05;;;18.10;96.30;;;;;;5117056;28;20360;-75
2022/10/31 00:52:29;;;;;;;9.95;5.97;;;18.10;96.10;;;;;;5116769;28;20081;-74
2022/10/31 00:54:54;;;;;;;12.98;6.30;;;18.10;96.00;;;;;;5116804;28;20023;-75
2022/10/31 00:57:20;;;;;;;9.63;6.45;;;18.00;95.90;;;;;;5116898;28;20035;-75
2022/10/31 00:59:45;;;;;;;10.15;6.40;;;18.00;95.90;;;;;;5116898;28;20463;-75
2022/10/31 01:02:11;;;;;;;12.00;6.35;;;18.00;95.80;;;;;;5116815;28;20020;-75
2022/10/31 01:04:36;;;;;;;9.60;6.75;;;18.00;95.80;;;;;;5116729;28;20019;-75
2022/10/31 01:07:02;;;;;;;10.32;6.28;;;18.00;95.80;;;;;;5116742;28;20028;-75
2022/10/31 01:09:28;;;;;;;10.45;5.75;;;17.90;95.80;;;;;;5116755;28;20023;-75
2022/10/31 01:11:53;;;;;;;12.52;6.60;;;17.90;95.90;;;;;;5116710;28;20490;-75
2022/10/31 01:14:19;;;;;;;8.93;6.22;;;17.90;95.90;;;;;;5116514;28;20106;-75
2022/10/31 01:16:44;;;;;;;9.75;6.65;;;17.90;95.80;;;;;;5116560;28;20035;-75
2022/10/31 01:19:10;;;;;;;14.52;7.13;;;17.90;95.80;;;;;;5116541;28;20478;-74
2022/10/31 01:21:35;;;;;;;10.77;6.10;;;17.90;95.80;;;;;;5116524;28;20425;-73
2022/10/31 01:24:02;;;;;;;11.85;6.53;;;17.80;95.80;;;;;;5116604;28;20024;-75
2022/10/31 01:26:32;;;;;;;12.60;6.47;;;17.80;95.90;;;;;;5115990;28;20031;-75
2022/10/31 01:29:04;;;;;;;10.02;6.43;;;17.80;95.80;;;;;;5116011;28;20032;-75
2022/10/31 01:31:36;;;;;;;10.80;6.28;;;17.90;95.90;;;;;;5115944;28;20027;-75
2022/10/31 01:34:02;;;;;;;11.00;6.28;;;17.90;95.80;;;;;;5116145;28;20417;-75
2022/10/31 01:36:31;;;;;;;11.38;6.47;;;17.90;95.80;;;;;;5115622;28;20074;-75
2022/10/31 01:39:00;;;;;;;7.63;5.25;;;17.80;95.90;;;;;;5115405;28;20524;-75
2022/10/31 01:41:31;;;;;;;10.38;6.38;;;17.90;95.90;;;;;;5115865;28;20106;-75
2022/10/31 01:44:02;;;;;;;11.65;6.28;;;17.90;95.90;;;;;;5115679;28;20031;-75
2022/10/31 01:46:35;;;;;;;12.63;6.97;;;17.90;95.90;;;;;;5115880;28;20084;-75
2022/10/31 01:49:05;;;;;;;12.90;7.63;;;17.80;95.80;;;;;;5115442;28;20106;-75
2022/10/31 01:51:36;;;;;;;8.68;5.45;;;17.70;95.80;;;;;;5115567;28;20114;-75
2022/10/31 01:54:08;;;;;;;8.73;6.28;;;17.80;95.80;;;;;;5115433;28;20064;-75
2022/10/31 01:56:38;;;;;;;10.18;5.07;;;17.70;96.00;;;;;;5115696;28;20066;-74
2022/10/31 01:59:08;;;;;;;10.10;6.13;;;17.70;96.30;;;;;;5115370;28;20034;-73
2022/10/31 02:01:35;;;;;;;12.55;6.72;;;17.70;96.10;;;;;;5115427;28;20034;-74
2022/10/31 02:04:01;;;;;;;12.38;6.70;;;17.70;96.00;;;;;;5115566;28;20019;-75
2022/10/31 02:06:37;;;;;;;9.27;6.25;;;17.70;96.00;;;;;;5115378;28;20370;-75
2022/10/31 02:09:05;;;;;;;11.25;6.20;;;17.70;96.00;;;;;;5115293;28;20031;-75
2022/10/31 02:11:32;;;;;;;11.13;6.45;;;17.70;96.00;;;;;;5115253;28;20030;-74
2022/10/31 02:14:00;;;;;;;11.10;6.97;;;17.70;95.90;;;;;;5114949;28;20040;-74
2022/10/31 02:16:25;;;;;;;12.50;7.15;;;17.70;95.80;;;;;;5115220;28;20051;-74
2022/10/31 02:18:51;;;;;;;9.40;5.80;;;17.60;95.80;;;;;;5114988;28;20019;-74
2022/10/31 02:21:19;;;;;;;10.05;6.78;;;17.60;95.80;;;;;;5115009;28;20054;-74
2022/10/31 02:23:56;;;;;;;12.27;6.05;;;17.60;95.90;;;;;;5114530;28;20051;-74
2022/10/31 02:26:34;;;;;;;9.23;6.10;;;17.60;95.80;;;;;;5115080;28;20030;-74
2022/10/31 02:29:27;;;;;;;10.02;6.47;;;17.60;95.80;;;;;;5114780;28;20019;-74
2022/10/31 02:32:00;;;;;;;9.32;6.43;;;17.60;95.80;;;;;;5114722;28;20402;-74
2022/10/31 02:34:43;;;;;;;11.43;6.97;;;17.60;95.70;;;;;;5114896;28;20051;-74
2022/10/31 02:37:18;;;;;;;11.00;6.70;;;17.60;95.70;;;;;;5113941;28;20070;-74
2022/10/31 02:39:53;;;;;;;11.68;6.63;;;17.60;95.70;;;;;;5114565;28;20536;-74
2022/10/31 02:42:33;;;;;;;10.45;7.55;;;17.50;95.70;;;;;;5114512;28;20036;-74
2022/10/31 02:45:28;;;;;;;14.57;8.48;;;17.50;95.60;;;;;;5114453;28;20016;-74
2022/10/31 02:47:58;;;;;;;12.77;7.78;;;17.30;95.60;;;;;;5114728;28;20038;-74
2022/10/31 02:50:31;;;;;;;13.13;8.30;;;17.20;95.90;;;;;;5116601;28;20052;-74
2022/10/31 02:52:56;;;;;;;13.85;8.55;;;17.20;95.90;;;;;;5114257;28;20054;-74
2022/10/31 02:55:22;;;;;;;10.48;7.00;;;17.10;95.90;;;;;;5114154;28;20419;-74
2022/10/31 02:57:48;;;;;;;9.40;6.10;;;17.10;96.20;;;;;;5114202;28;20048;-74
2022/10/31 03:00:14;;;;;;;10.73;6.22;;;17.10;96.20;;;;;;5113900;28;20028;-74
2022/10/31 03:03:12;;;;;;;12.18;6.80;;;17.10;96.40;;;;;;5114305;28;20038;-74
2022/10/31 03:06:08;;;;;;;11.50;7.10;;;17.10;96.30;;;;;;5113743;28;20126;-74
2022/10/31 03:08:50;;;;;;;9.73;5.95;;;17.20;96.20;;;;;;5114049;28;20031;-75
2022/10/31 03:11:19;;;;;;;8.77;6.18;;;17.10;96.20;;;;;;5114162;28;20035;-75
2022/10/31 03:14:00;;;;;;;10.98;5.22;;;17.20;96.30;;;;;;5113712;28;20028;-74
2022/10/31 03:16:35;;;;;;;7.22;5.15;;;17.20;96.30;;;;;;5113847;28;20077;-74
2022/10/31 03:19:03;;;;;;;9.57;6.40;;;17.20;96.30;;;;;;5114051;28;20031;-75
2022/10/31 03:21:47;;;;;;;8.90;6.50;;;17.30;96.30;;;;;;5113848;28;20115;-74
2022/10/31 03:24:14;;;;;;;10.38;6.82;;;17.30;96.10;;;;;;5113734;28;20023;-74
2022/10/31 03:26:48;;;;;;;8.52;5.55;;;17.30;96.10;;;;;;5113868;28;20089;-75
2022/10/31 03:29:17;;;;;;;12.57;6.35;;;17.30;96.00;;;;;;5114059;28;20052;-75
2022/10/31 03:31:57;;;;;;;11.13;6.75;;;17.30;96.00;;;;;;5113893;28;20028;-74
2022/10/31 03:34:22;;;;;;;10.85;5.82;;;17.30;95.80;;;;;;5113789;28;20028;-74
2022/10/31 03:36:55;;;;;;;10.45;7.32;;;17.30;95.80;;;;;;5113244;28;20468;-74
2022/10/31 03:39:22;;;;;;;11.32;6.55;;;17.30;95.80;;;;;;5113656;28;20024;-74
2022/10/31 03:42:06;;;;;;;9.20;6.60;;;17.20;95.80;;;;;;5113793;28;20066;-74
2022/10/31 03:44:32;;;;;;;12.43;7.68;;;17.20;96.10;;;;;;5114671;28;20051;-74
2022/10/31 03:46:59;;;;;;;12.48;6.68;;;17.20;95.80;;;;;;5114664;28;20035;-74
2022/10/31 03:49:25;;;;;;;11.93;6.88;;;17.20;95.80;;;;;;5113981;28;20107;-75
2022/10/31 03:52:16;;;;;;;10.25;6.65;;;17.20;95.90;;;;;;5113425;28;20024;-74
2022/10/31 03:54:45;;;;;;;8.57;5.97;;;17.20;95.80;;;;;;5101832;28;20078;-74
2022/10/31 03:57:32;;;;;;;9.77;6.30;;;17.20;95.80;;;;;;5113205;28;20035;-74
2022/10/31 04:00:05;;;;;;;9.73;6.97;;;17.10;95.70;;;;;;5113416;28;20032;-74
2022/10/31 04:02:34;;;;;;;8.00;5.38;;;17.10;95.60;;;;;;5113353;28;20474;-74
2022/10/31 04:05:01;;;;;;;9.48;6.45;;;17.10;95.80;;;;;;5113694;28;20371;-74
2022/10/31 04:07:31;;;;;;;8.68;6.22;;;17.10;95.90;;;;;;5113664;28;20027;-74
2022/10/31 04:09:59;;;;;;;9.68;7.40;;;17.10;95.80;;;;;;5113121;28;20023;-75
2022/10/31 04:12:27;;;;;;;7.25;5.40;;;17.10;95.90;;;;;;5113574;28;20073;-74
2022/10/31 04:14:53;;;;;;;11.25;6.10;;;17.00;95.90;;;;;;5113304;28;20112;-74
2022/10/31 04:17:22;;;;;;;8.93;5.60;;;17.00;96.10;;;;;;5113151;28;20040;-74
2022/10/31 04:19:48;;;;;;;10.65;6.55;;;17.00;96.20;;;;;;5116699;28;20024;-74
2022/10/31 04:22:14;;;;;;;9.57;6.55;;;17.00;96.30;;;;;;5117054;28;20027;-74
2022/10/31 04:24:40;;;;;;;15.00;8.68;;;17.00;96.30;;;;;;5117443;28;20060;-74
2022/10/31 04:27:06;;;;;;;12.48;7.63;;;17.00;96.00;;;;;;5117483;28;20375;-74
2022/10/31 04:29:32;;;;;;;10.43;7.10;;;16.90;96.00;;;;;;5117259;28;20065;-74
2022/10/31 04:31:57;;;;;;;10.70;7.13;;;16.90;96.00;;;;;;5117254;28;20032;-74
2022/10/31 04:34:23;;;;;;;8.55;5.90;;;16.90;96.00;;;;;;5116906;28;20483;-74
2022/10/31 04:36:49;;;;;;;11.45;7.03;;;16.90;96.00;;;;;;5116721;28;20048;-74
2022/10/31 04:39:14;;;;;;;10.48;7.53;;;16.90;96.00;;;;;;5116954;28;20054;-74
2022/10/31 04:41:40;;;;;;;10.07;6.28;;;16.90;95.80;;;;;;5119198;28;20019;-75
2022/10/31 04:44:05;;;;;;;12.35;8.13;;;16.80;95.70;;;;;;5117967;28;20064;-75
2022/10/31 04:46:31;;;;;;;13.95;7.85;;;16.90;95.60;;;;;;5116668;28;20034;-75
2022/10/31 04:48:56;;;;;;;9.35;7.50;;;16.80;95.50;;;;;;5116638;28;20076;-75
2022/10/31 04:51:22;;;;;;;7.20;5.20;;;16.80;95.60;;;;;;5116698;28;20115;-75
2022/10/31 04:53:48;;;;;;;9.55;6.57;;;16.80;95.70;;;;;;5116800;28;20043;-75
2022/10/31 04:56:13;;;;;;;11.60;8.48;;;16.80;95.90;;;;;;5116603;28;20066;-75
2022/10/31 04:58:39;;;;;;;13.32;8.38;;;16.80;95.70;;;;;;5116860;28;20027;-75
2022/10/31 05:01:04;;;;;;;9.00;6.43;;;16.80;95.70;;;;;;5116653;28;20024;-75
2022/10/31 05:03:30;;;;;;;9.00;7.22;;;16.90;95.60;;;;;;5116491;28;20031;-75
2022/10/31 05:05:56;;;;;;;11.13;7.38;;;16.80;95.80;;;;;;5116530;28;20055;-75
2022/10/31 05:08:21;;;;;;;13.75;8.70;;;16.80;95.90;;;;;;5116025;28;20120;-75
2022/10/31 05:10:47;;;;;;;16.63;9.15;;;16.80;96.00;;;;;;5116588;28;20031;-75
2022/10/31 05:13:14;;;;;;;12.20;7.57;;;16.80;96.20;;;;;;5116571;28;20103;-75
2022/10/31 05:15:40;;;;;;;11.38;9.55;;;16.80;96.00;;;;;;5116216;28;20032;-75
2022/10/31 05:18:05;;;;;;;10.90;7.80;;;16.80;96.00;;;;;;5116335;28;20028;-75
2022/10/31 05:20:31;;;;;;;14.75;8.65;;;16.70;96.00;;;;;;5115795;28;20344;-75
2022/10/31 05:22:58;;;;;;;13.05;9.18;;;16.80;96.10;;;;;;5116029;28;20059;-75
2022/10/31 05:25:26;;;;;;;15.20;9.13;;;16.80;96.00;;;;;;5116362;28;20378;-74
2022/10/31 05:27:52;;;;;;;12.18;7.75;;;16.70;95.90;;;;;;5115973;28;20020;-73
2022/10/31 05:30:21;;;;;;;14.75;9.23;;;16.70;96.10;;;;;;5115752;28;20039;-73
2022/10/31 05:32:48;;;;;;;15.88;10.32;;;16.70;96.10;;;;;;5115812;28;20027;-74
2022/10/31 05:35:17;;;;;;;10.98;7.25;;;16.60;95.80;;;;;;5116064;28;20047;-74
2022/10/31 05:37:43;;;;;;;11.77;7.63;;;16.60;95.90;;;;;;5117301;28;20111;-74
2022/10/31 05:40:11;;;;;;;13.88;8.95;;;16.50;96.20;;;;;;5117360;28;20047;-75
2022/10/31 05:42:39;;;;;;;10.80;7.97;;;16.60;96.20;;;;;;5115465;28;20463;-74
2022/10/31 05:45:07;;;;;;;11.48;8.75;;;16.60;96.20;;;;;;5115660;28;20080;-74
2022/10/31 05:47:32;;;;;;;14.98;8.95;;;16.70;96.20;;;;;;5115463;28;20103;-74
2022/10/31 05:49:58;;;;;;;13.98;9.85;;;16.70;96.20;;;;;;5115564;28;20609;-74
2022/10/31 05:52:24;;;;;;;14.80;10.10;;;16.60;96.00;;;;;;5115691;28;20016;-74
2022/10/31 05:54:50;;;;;;;15.50;10.48;;;16.60;96.00;;;;;;5115290;28;20387;-74
2022/10/31 05:57:16;;;;;;;15.18;10.20;;;16.60;95.90;;;;;;5115451;28;20032;-74
2022/10/31 05:59:41;;;;;;;12.80;8.93;;;16.50;95.80;;;;;;5115655;28;20437;-74
2022/10/31 06:02:07;;;;;;;10.85;8.15;;;16.50;95.90;;;;;;5115313;28;20032;-74
2022/10/31 06:04:32;;;;;;;13.85;10.75;;;16.60;96.10;;;;;;5115173;28;20110;-74
2022/10/31 06:06:58;;;;;;;16.25;11.13;;;16.50;96.10;;;;;;5115337;28;20111;-74
2022/10/31 06:09:24;;;;;;;13.57;10.05;;;16.50;96.20;;;;;;5115174;28;20485;-74
2022/10/31 06:11:52;;;;;;;16.52;10.07;;;16.60;96.20;;;;;;5115195;28;20023;-74
2022/10/31 06:14:18;;;;;;;17.98;10.85;;;16.50;96.30;;;;;;5115058;28;20049;-74
2022/10/31 06:16:43;;;;;;;16.98;11.40;;;16.60;96.40;;;;;;5114917;28;20031;-74
2022/10/31 06:19:09;;;;;;;14.85;10.23;;;16.50;96.40;;;;;;5114889;28;20023;-74
2022/10/31 06:21:35;;;;;;;15.70;8.68;;;16.50;96.40;;;;;;5115104;28;20066;-74
2022/10/31 06:24:00;;;;;;;15.60;10.25;;;16.40;96.60;;;;;;5114730;28;20087;-74
2022/10/31 06:26:26;;;;;;;12.95;9.00;;;16.40;96.60;;;;;;5114797;28;20027;-73
2022/10/31 06:28:51;;;;;;;21.52;12.38;;;16.50;96.80;;;;;;5114805;28;20597;-73
2022/10/31 06:31:17;;;;;;;15.27;11.30;;;16.40;96.90;;;;;;5115054;28;20031;-75
2022/10/31 06:33:42;;;;;;;13.95;10.80;;;16.40;96.80;;;;;;5117059;28;20458;-77
2022/10/31 06:36:09;;;;;;;5.47;3.28;;;16.40;96.80;;;;;;5116001;28;20047;-76
2022/10/31 06:38:35;;;;;;;4.70;3.15;;;16.60;98.40;;;;;;5112524;28;20047;-76
2022/10/31 06:41:05;;;;;;;4.72;3.28;;;16.90;99.00;;;;;;5113624;28;20569;-74
2022/10/31 06:43:31;;;;;;;15.77;10.07;;;17.20;98.70;;;;;;5111951;28;20479;-78
2022/10/31 06:45:57;;;;;;;16.60;11.50;;;17.50;97.90;;;;;;5113075;28;20032;-80
2022/10/31 06:48:23;;;;;;;15.63;10.90;;;17.40;97.00;;;;;;5114370;28;20023;-79
2022/10/31 06:50:48;;;;;;;13.85;9.70;;;17.30;96.70;;;;;;5114546;28;20084;-80
2022/10/31 06:53:14;;;;;;;15.02;10.25;;;17.10;96.60;;;;;;5114241;28;20024;-81
2022/10/31 06:55:40;;;;;;;15.80;11.05;;;17.10;96.60;;;;;;5112884;28;20051;-80
2022/10/31 06:58:06;;;;;;;15.50;11.80;;;17.00;96.40;;;;;;5113366;28;20027;-77
2022/10/31 07:00:32;;;;;;;15.70;10.57;;;17.00;96.20;;;;;;5112355;28;20020;-76
2022/10/31 07:03:00;;;;;;;14.32;10.73;;;16.90;96.20;;;;;;5113948;28;20027;-77
2022/10/31 07:05:26;;;;;;;16.05;11.60;;;16.90;96.40;;;;;;5109323;28;20023;-74
2022/10/31 07:07:54;;;;;;;15.73;12.10;;;16.80;96.30;;;;;;5096414;28;20479;-74
2022/10/31 07:10:20;;;;;;;21.08;12.48;;;16.70;96.10;;;;;;5103900;28;20554;-77
2022/10/31 07:12:45;;;;;;;18.15;11.20;;;16.60;96.10;;;;;;5093685;28;20107;-75
2022/10/31 07:15:11;;;;;;;16.45;10.60;;;16.60;96.30;;;;;;5109901;28;20023;-76
2022/10/31 07:17:37;;;;;;;16.90;11.23;;;16.60;96.30;;;;;;5112187;28;20042;-75
2022/10/31 07:20:03;;;;;;;15.57;10.70;;;16.60;96.30;;;;;;5113911;28;20023;-76
2022/10/31 07:22:35;;;;;;;15.23;9.98;;;16.60;96.30;;;;;;5113956;28;20024;-74
2022/10/31 07:25:01;;;;;;;;;;;16.60;96.40;;;;;;5114254;28;20027;-74
2022/10/31 07:27:26;;;;;;;21.63;12.35;;;16.60;96.40;;;;;;5096576;28;19911;-74
2022/10/31 07:29:52;;;;;;;22.25;13.05;;;16.50;96.50;;;;;;5095070;28;20024;-74
2022/10/31 07:32:18;;;;;;;17.88;11.52;;;16.40;96.50;;;;;;5118522;28;20391;-76
2022/10/31 07:34:43;;;;;;;18.92;13.65;;;16.40;96.70;;;;;;5102253;28;20473;-76
2022/10/31 07:37:09;;;;;;;20.88;13.40;;;16.30;96.90;;;;;;5093060;28;20052;-76
2022/10/31 07:39:34;;;;;;;15.65;9.77;;;16.20;97.10;;;;;;5093511;28;20048;-75
2022/10/31 07:42:00;;;;;;;16.58;10.65;;;16.10;97.40;;;;;;5102214;28;20032;-79
2022/10/31 07:44:29;;;;;;;20.55;13.32;;;16.10;97.50;;;;;;5104901;28;20054;-76
2022/10/31 07:46:54;;;;;;;16.58;11.82;;;16.10;97.60;;;;;;5108183;28;20031;-75
2022/10/31 07:49:20;;;;;;;20.13;15.45;;;16.10;97.70;;;;;;5102365;28;20425;-76
2022/10/31 07:51:45;;;;;;;21.00;14.18;;;16.10;97.80;;;;;;5100954;28;20110;-76
2022/10/31 07:54:11;;;;;;;18.95;13.85;;;16.00;98.00;;;;;;5111962;28;20062;-76
2022/10/31 07:56:36;;;;;;;19.73;14.95;;;15.90;98.20;;;;;;5100693;28;20456;-76
2022/10/31 07:59:02;;;;;;;20.58;15.77;;;16.00;98.40;;;;;;5106587;28;20024;-75
2022/10/31 08:01:27;;;;;;;19.27;13.35;;;16.00;98.60;;;;;;5100847;28;20078;-76
2022/10/31 08:03:53;;;;;;;18.42;14.13;;;15.90;98.70;;;;;;5108600;28;20447;-77
2022/10/31 08:06:18;;;;;;;20.67;12.70;;;16.00;98.80;;;;;;5097386;28;20069;-77
2022/10/31 08:08:47;;;;;;;21.58;14.20;;;16.00;98.70;;;;;;5110272;28;20026;-75
2022/10/31 08:11:12;;;;;;;17.58;12.52;;;16.00;98.70;;;;;;5117735;28;20035;-76
2022/10/31 08:13:38;;;;;;;22.45;14.60;;;16.10;98.80;;;;;;5117805;28;20023;-76
2022/10/31 08:16:04;;;;;;;24.55;15.23;;;16.10;98.90;;;;;;5117119;28;20027;-76
2022/10/31 08:18:30;;;;;;;18.50;12.38;;;16.00;99.10;;;;;;5117458;28;20035;-76
2022/10/31 08:20:56;;;;;;;24.58;14.90;;;15.90;99.50;;;;;;5117427;28;20046;-76
2022/10/31 08:23:22;;;;;;;20.73;14.05;;;15.90;99.80;;;;;;5117487;28;20031;-76
2022/10/31 08:25:48;;;;;;;20.60;13.30;;;15.80;99.90;;;;;;5116975;28;20042;-76
2022/10/31 08:28:14;;;;;;;25.38;16.42;;;15.90;99.90;;;;;;5123509;28;20024;-76
2022/10/31 08:30:40;;;;;;;23.27;15.00;;;15.90;99.80;;;;;;5111335;28;20027;-76
2022/10/31 08:33:18;;;;;;;24.80;16.95;;;15.80;99.90;;;;;;5104810;28;20035;-75
2022/10/31 08:35:44;;;;;;;26.00;14.48;;;15.70;99.80;;;;;;5096699;28;20024;-76
2022/10/31 08:38:12;;;;;;;29.45;19.65;;;15.70;99.90;;;;;;5102920;28;20028;-76
2022/10/31 08:40:38;;;;;;;29.98;19.92;;;15.80;99.90;;;;;;5103292;28;20410;-77
2022/10/31 08:43:06;;;;;;;25.05;17.88;;;15.70;99.90;;;;;;5102694;28;20032;-75
2022/10/31 08:45:33;;;;;;;28.98;19.65;;;15.70;99.90;;;;;;5114156;28;20242;-76
2022/10/31 08:48:04;;;;;;;29.40;19.80;;;15.70;99.90;;;;;;5098904;28;20115;-76
2022/10/31 08:50:31;;;;;;;27.50;18.85;;;15.90;99.90;;;;;;5096028;28;20031;-76
2022/10/31 08:53:05;;;;;;;26.83;18.88;;;16.00;99.90;;;;;;5102843;28;20467;-76
2022/10/31 08:55:31;;;;;;;22.83;15.15;;;15.90;99.90;;;;;;5098461;28;20032;-75
2022/10/31 08:57:57;;;;;;;27.65;17.80;;;15.90;99.90;;;;;;5098938;28;20035;-76
2022/10/31 09:00:23;;;;;;;25.60;16.52;;;16.00;99.90;;;;;;5103191;28;20081;-76
2022/10/31 09:02:58;;;;;;;25.13;16.58;;;16.00;99.90;;;;;;5104551;28;20057;-78
2022/10/31 09:05:24;;;;;;;22.98;15.68;;;16.00;99.90;;;;;;5107827;28;20032;-75
2022/10/31 09:07:50;;;;;;;22.23;16.42;;;16.00;99.90;;;;;;5095929;28;20028;-75
2022/10/31 09:10:16;;;;;;;23.38;16.92;;;16.10;99.90;;;;;;5096100;28;20026;-76
2022/10/31 09:12:41;;;;;;;21.00;14.68;;;16.00;99.90;;;;;;5095775;28;20028;-75
2022/10/31 09:15:07;;;;;;;20.88;14.02;;;15.90;99.90;;;;;;5096129;28;20042;-76
2022/10/31 09:17:33;;;;;;;23.10;14.63;;;16.00;99.90;;;;;;5095876;28;20040;-77
2022/10/31 09:19:58;;;;;;;20.10;14.43;;;16.10;99.90;;;;;;5096454;28;20513;-75
2022/10/31 09:22:24;;;;;;;20.15;14.23;;;16.20;99.90;;;;;;5113564;28;20050;-75
2022/10/31 09:24:50;;;;;;;22.08;14.60;;;16.30;99.90;;;;;;5120689;28;20027;-75
2022/10/31 09:27:15;;;;;;;21.00;13.18;;;16.40;99.90;;;;;;5116417;28;20037;-75
2022/10/31 09:29:41;;;;;;;22.83;12.65;;;16.40;99.90;;;;;;5116326;28;20027;-76
2022/10/31 09:32:06;;;;;;;15.40;10.75;;;16.40;99.90;;;;;;5116443;28;20015;-75
2022/10/31 09:34:32;;;;;;;20.45;13.43;;;16.40;99.80;;;;;;5116025;28;20027;-78
2022/10/31 09:36:58;;;;;;;16.65;11.90;;;16.50;99.70;;;;;;5103057;28;20040;-78
2022/10/31 09:39:23;;;;;;;22.08;13.55;;;16.50;99.60;;;;;;5102397;28;20034;-78
2022/10/31 09:42:11;;;;;;;19.42;12.93;;;16.50;99.40;;;;;;5110814;28;20127;-79
2022/10/31 09:45:03;;;;;;;19.77;12.70;;;16.60;99.20;;;;;;5102741;28;20352;-79
2022/10/31 09:48:01;;;;;;;20.70;12.90;;;16.60;99.20;;;;;;5108083;28;20040;-78
2022/10/31 09:50:41;;;;;;;27.30;14.50;;;16.60;99.40;;;;;;5101121;28;20020;-76
2022/10/31 09:53:34;;;;;;;23.00;13.07;;;16.60;99.40;;;;;;5098947;28;20030;-76
2022/10/31 09:56:00;;;;;;;22.33;14.30;;;16.60;99.50;;;;;;5112081;28;20150;-75
2022/10/31 09:58:28;;;;;;;21.40;14.30;;;16.60;99.70;;;;;;5111715;28;20570;-75
2022/10/31 10:00:59;;;;;;;23.00;14.65;;;16.60;99.80;;;;;;5100299;28;20491;-76
2022/10/31 10:03:33;;;;;;;21.85;14.77;;;16.60;99.70;;;;;;5095341;28;20107;-76
2022/10/31 10:06:13;;;;;;;23.20;14.30;;;16.70;99.80;;;;;;5100604;28;20108;-75
2022/10/31 10:08:39;;;;;;;27.75;16.63;;;16.70;99.90;;;;;;5108918;28;20019;-76
2022/10/31 10:11:20;;;;;;;24.88;16.52;;;16.80;99.80;;;;;;5110855;28;20084;-75
2022/10/31 10:14:18;;;;;;;22.25;14.55;;;16.60;99.80;;;;;;5105424;28;20023;-76
2022/10/31 10:17:09;;;;;;;28.10;16.98;;;16.70;99.90;;;;;;5107740;28;20049;-75
2022/10/31 10:19:43;;;;;;;29.23;16.98;;;16.80;99.90;;;;;;5097473;28;20027;-74
2022/10/31 10:22:20;;;;;;;29.55;17.02;;;16.80;99.90;;;;;;5098165;28;20039;-76
2022/10/31 10:24:56;;;;;;;28.73;16.63;;;16.90;99.90;;;;;;5095699;28;20380;-76
2022/10/31 10:27:22;;;;;;;27.00;17.33;;;16.90;99.90;;;;;;5105330;28;20080;-76
2022/10/31 10:29:56;;;;;;;33.38;17.52;;;16.90;99.90;;;;;;5096445;28;20413;-76
2022/10/31 10:32:30;;;;;;;26.10;17.27;;;17.00;99.90;;;;;;5102426;28;20101;-76
2022/10/31 10:35:19;;;;;;;28.88;17.20;;;17.00;99.90;;;;;;5107073;28;20047;-78
2022/10/31 10:37:46;;;;;;;24.52;16.65;;;17.00;99.90;;;;;;5107263;28;20502;-78
2022/10/31 10:40:21;;;;;;;23.45;17.50;;;17.10;99.80;;;;;;5103098;28;20024;-78
2022/10/31 10:48:43;;;;;;;28.42;18.10;;;17.10;99.90;;;;;;5106650;28;20026;-77
2022/10/31 10:51:37;;;;;;;30.63;19.65;;;17.20;99.90;;;;;;5108042;28;20019;-77
2022/10/31 10:54:29;;;;;;;32.45;19.75;;;17.20;99.90;;;;;;5111105;28;20531;-78
2022/10/31 10:57:03;;;;;;;23.73;16.97;;;17.10;99.90;;;;;;5081214;28;20127;-77
2022/10/31 10:59:30;;;;;;;28.15;17.95;;;17.20;99.90;;;;;;5094760;28;20103;-77
2022/10/31 11:01:56;;;;;;;28.83;16.05;;;17.20;99.90;;;;;;5105959;28;20049;-77
2022/10/31 11:04:39;;;;;;;27.23;15.27;;;17.30;99.80;;;;;;5094365;28;20442;-76
2022/10/31 11:07:06;;;;;;;28.55;15.13;;;17.50;99.30;;;;;;5102718;28;20110;-78
2022/10/31 11:09:33;;;;;;;29.98;16.27;;;17.50;98.50;;;;;;5099423;28;20016;-77
2022/10/31 11:12:05;;;;;;;25.80;15.82;;;17.60;98.30;;;;;;5095689;28;20103;-76
2022/10/31 11:14:33;;;;;;;28.63;18.30;;;17.70;98.30;;;;;;5106647;28;20023;-75
2022/10/31 11:17:30;;;;;;;38.08;18.95;;;17.70;98.40;;;;;;5104699;28;20074;-75
2022/10/31 11:20:13;;;;;;;29.80;18.70;;;17.80;98.40;;;;;;5099848;28;20059;-80
2022/10/31 11:22:41;;;;;;;27.58;17.10;;;17.80;98.40;;;;;;5096368;28;20019;-76
2022/10/31 11:25:19;;;;;;;34.10;18.85;;;17.80;98.40;;;;;;5113675;28;20419;-75
2022/10/31 11:27:46;;;;;;;31.20;18.20;;;17.90;98.30;;;;;;5113176;28;20020;-79
2022/10/31 11:30:14;;;;;;;33.85;20.02;;;17.90;98.10;;;;;;5105755;28;20111;-77
2022/10/31 11:32:52;;;;;;;33.92;18.35;;;17.90;97.90;;;;;;5094304;28;20016;-74
2022/10/31 11:35:19;;;;;;;29.02;18.75;;;17.90;98.00;;;;;;5092749;28;20040;-73
2022/10/31 11:37:49;;;;;;;33.53;19.75;;;17.90;97.90;;;;;;5097219;28;20105;-74
2022/10/31 11:40:16;;;;;;;32.38;19.30;;;17.90;98.00;;;;;;5076165;28;20348;-74
2022/10/31 11:42:42;;;;;;;37.17;22.45;;;17.90;98.10;;;;;;5102686;28;20019;-74
2022/10/31 11:45:22;;;;;;;36.88;21.63;;;17.90;98.10;;;;;;5102938;28;20062;-74
2022/10/31 11:47:50;;;;;;;35.95;21.50;;;17.80;98.20;;;;;;5107643;28;20016;-74
2022/10/31 11:50:34;;;;;;;32.88;20.42;;;17.80;98.30;;;;;;5110130;28;20028;-73
2022/10/31 11:53:01;;;;;;;37.65;20.58;;;17.80;98.30;;;;;;5093860;28;20453;-73
2022/10/31 11:55:37;;;;;;;36.20;21.80;;;17.70;98.60;;;;;;5100563;28;20107;-74
2022/10/31 11:58:03;;;;;;;36.80;22.30;;;17.70;98.70;;;;;;5104585;28;20032;-74
2022/10/31 12:00:30;;;;;;;34.03;20.38;;;17.70;98.80;;;;;;5099484;28;20027;-74
2022/10/31 12:03:15;;;;;;;38.95;22.27;;;17.70;99.00;;;;;;5109691;28;20387;-74
2022/10/31 12:05:44;;;;;;;37.22;22.42;;;17.70;98.80;;;;;;5109042;28;20152;-74
2022/10/31 12:08:12;;;;;;;36.63;21.33;;;17.70;98.80;;;;;;5101839;28;20032;-74
2022/10/31 12:10:58;;;;;;;32.50;20.27;;;17.60;98.90;;;;;;5095118;28;20035;-73
2022/10/31 12:13:55;;;;;;;28.10;17.08;;;17.60;99.10;;;;;;5104083;28;20480;-74
2022/10/31 12:16:36;;;;;;;35.78;22.17;;;17.70;99.00;;;;;;5099331;28;20042;-77
2022/10/31 12:19:29;;;;;;;32.75;20.55;;;17.80;99.10;;;;;;5102921;28;20065;-76
2022/10/31 12:22:02;;;;;;;;;;;17.90;99.20;;;;;;5094459;28;20031;-77
2022/10/31 12:24:48;;;;;;;34.80;20.88;;;17.90;99.30;;;;;;5104466;28;20014;-76
2022/10/31 12:27:32;;;;;;;38.55;22.35;;;18.00;99.10;;;;;;5096567;28;20039;-74
2022/10/31 12:30:30;;;;;;;32.83;21.02;;;18.00;99.00;;;;;;5109812;28;20035;-73
2022/10/31 12:33:17;;;;;;;37.63;22.13;;;18.10;99.10;;;;;;5099981;28;20024;-74
2022/10/31 12:35:56;;;;;;;40.90;22.48;;;18.10;99.10;;;;;;5092206;28;20044;-73
2022/10/31 12:38:48;;;;;;;35.42;21.55;;;18.00;99.10;;;;;;5092912;28;20089;-74
2022/10/31 12:41:20;;;;;;;36.78;20.88;;;18.00;98.90;;;;;;5096527;28;20459;-74
2022/10/31 12:43:48;;;;;;;33.58;20.38;;;18.00;99.00;;;;;;5096701;28;20120;-72
2022/10/31 12:46:29;;;;;;;37.80;21.92;;;18.00;98.90;;;;;;5114175;28;20405;-72
2022/10/31 12:49:12;;;;;;;39.20;21.70;;;18.10;98.90;;;;;;5111091;28;20375;-72
2022/10/31 12:51:51;;;;;;;41.97;22.30;;;18.10;98.80;;;;;;5097427;28;20077;-74
2022/10/31 12:54:33;;;;;;;35.25;21.40;;;18.10;98.60;;;;;;5108986;28;20046;-72